createdAt,value
2022-10-24T00:01:14.846Z,100308.66
2022-10-24T00:03:42.330Z,100299.63
2022-10-24T00:06:11.042Z,100315.16
2022-10-24T00:08:39.031Z,100308.19
2022-10-24T00:11:15.272Z,100320.81
2022-10-24T00:13:42.630Z,100317.31
2022-10-24T00:16:10.924Z,100314.31
2022-10-24T00:18:38.090Z,100323.47
2022-10-24T00:21:05.490Z,100320.81
2022-10-24T00:23:32.572Z,100322.75
2022-10-24T00:26:04.217Z,100320.56
2022-10-24T00:28:33.418Z,100329.97
2022-10-24T00:31:00.565Z,100326.34
2022-10-24T00:33:27.702Z,100313.94
2022-10-24T00:35:54.883Z,100320.56
2022-10-24T00:38:22.116Z,100324.81
2022-10-24T00:40:49.241Z,100320.81
2022-10-24T00:43:22.584Z,100313.47
2022-10-24T00:45:54.981Z,100310.97
2022-10-24T00:48:52.541Z,100319.03
2022-10-24T00:51:24.622Z,100318.28
2022-10-24T00:53:54.405Z,100318.88
2022-10-24T00:56:23.363Z,100330.34
2022-10-24T00:58:51.010Z,100329.38
2022-10-24T01:01:18.208Z,100339.81
2022-10-24T01:03:45.418Z,100355.81
2022-10-24T01:06:27.380Z,100351.25
2022-10-24T01:09:07.047Z,100366.63
2022-10-24T01:11:50.836Z,100361.78
2022-10-24T01:14:32.847Z,100361.56
2022-10-24T01:17:16.134Z,100362.28
2022-10-24T01:20:16.565Z,100343.28
2022-10-24T01:23:01.598Z,100345.78
2022-10-24T01:25:47.030Z,100345.56
2022-10-24T01:28:21.102Z,100345.22
2022-10-24T01:31:10.436Z,100330.66
2022-10-24T01:33:46.486Z,100323.34
2022-10-24T01:36:26.072Z,100308.31
2022-10-24T01:38:57.311Z,100301.06
2022-10-24T01:41:27.594Z,100299.28
2022-10-24T01:44:02.396Z,100300.50
2022-10-24T01:46:33.436Z,100306.72
2022-10-24T01:49:10.053Z,100301.56
2022-10-24T01:51:37.132Z,100297.94
2022-10-24T01:54:04.403Z,100285.81
2022-10-24T01:56:31.523Z,100283.88
2022-10-24T01:59:05.404Z,100281.97
2022-10-24T02:01:32.625Z,100264.16
2022-10-24T02:04:04.186Z,100261.63
2022-10-24T02:06:39.203Z,100259.09
2022-10-24T02:09:10.668Z,100250.31
2022-10-24T02:11:38.831Z,100264.50
2022-10-24T02:14:14.869Z,100261.16
2022-10-24T02:16:43.382Z,100261.25
2022-10-24T02:19:11.067Z,100261.41
2022-10-24T02:21:48.235Z,100249.97
2022-10-24T02:24:22.261Z,100258.97
2022-10-24T02:26:54.442Z,100256.69
2022-10-24T02:29:33.152Z,100262.94
2022-10-24T02:32:01.598Z,100252.50
2022-10-24T02:34:31.009Z,100261.00
2022-10-24T02:36:58.639Z,100256.59
2022-10-24T02:39:26.426Z,100255.00
2022-10-24T02:41:55.062Z,100255.25
2022-10-24T02:44:23.535Z,100236.97
2022-10-24T02:46:52.214Z,100241.31
2022-10-24T02:49:19.292Z,100231.78
2022-10-24T02:51:46.853Z,100235.28
2022-10-24T02:54:13.906Z,100239.72
2022-10-24T02:56:44.999Z,100233.59
2022-10-24T02:59:12.132Z,100239.13
2022-10-24T03:01:39.256Z,100247.31
2022-10-24T03:04:06.921Z,100245.63
2022-10-24T03:06:34.014Z,100228.91
2022-10-24T03:09:01.151Z,100242.00
2022-10-24T03:11:28.273Z,100234.44
2022-10-24T03:13:55.558Z,100235.50
2022-10-24T03:16:22.663Z,100228.75
2022-10-24T03:18:49.751Z,100228.06
2022-10-24T03:21:16.811Z,100242.81
2022-10-24T03:23:43.979Z,100247.13
2022-10-24T03:26:11.101Z,100247.97
2022-10-24T03:28:39.047Z,100242.69
2022-10-24T03:31:06.701Z,100241.75
2022-10-24T03:33:34.019Z,100247.97
2022-10-24T03:36:01.129Z,100247.88
2022-10-24T03:38:28.230Z,100243.31
2022-10-24T03:40:55.382Z,100241.41
2022-10-24T03:43:22.502Z,100237.88
2022-10-24T03:45:49.646Z,100243.31
2022-10-24T03:48:16.721Z,100234.66
2022-10-24T03:50:43.855Z,100241.50
2022-10-24T03:53:10.991Z,100232.91
2022-10-24T03:55:38.749Z,100225.81
2022-10-24T03:58:05.848Z,100236.75
2022-10-24T04:00:38.819Z,100235.91
2022-10-24T04:03:09.867Z,100242.88
2022-10-24T04:08:09.560Z,100239.63
2022-10-24T04:10:36.641Z,100246.69
2022-10-24T04:13:03.915Z,100241.50
2022-10-24T04:15:31.169Z,100242.34
2022-10-24T04:17:58.247Z,100236.81
2022-10-24T04:20:25.476Z,100236.59
2022-10-24T04:22:52.665Z,100231.66
2022-10-24T04:25:20.036Z,100228.19
2022-10-24T04:27:47.302Z,100230.69
2022-10-24T04:30:16.528Z,100234.94
2022-10-24T04:32:45.008Z,100232.03
2022-10-24T04:35:12.592Z,100232.88
2022-10-24T04:37:39.688Z,100245.25
2022-10-24T04:40:07.397Z,100236.81
2022-10-24T04:42:34.533Z,100238.63
2022-10-24T04:45:01.644Z,100247.31
2022-10-24T04:47:28.756Z,100242.84
2022-10-24T04:49:55.855Z,100241.06
2022-10-24T04:52:23.169Z,100239.38
2022-10-24T04:54:50.272Z,100235.66
2022-10-24T04:57:17.515Z,100233.97
2022-10-24T04:59:44.619Z,100247.19
2022-10-24T05:02:11.794Z,100241.88
2022-10-24T05:04:38.921Z,100258.59
2022-10-24T05:07:05.998Z,100263.16
2022-10-24T05:09:33.163Z,100267.09
2022-10-24T05:12:00.395Z,100273.47
2022-10-24T05:14:27.606Z,100281.25
2022-10-24T05:16:54.794Z,100272.28
2022-10-24T05:19:21.991Z,100267.91
2022-10-24T05:21:49.201Z,100264.56
2022-10-24T05:24:16.521Z,100266.81
2022-10-24T05:26:43.807Z,100269.44
2022-10-24T05:29:10.878Z,100269.44
2022-10-24T05:31:37.993Z,100275.59
2022-10-24T05:34:05.098Z,100274.97
2022-10-24T05:36:32.237Z,100270.31
2022-10-24T05:38:59.354Z,100266.38
2022-10-24T05:41:26.456Z,100260.97
2022-10-24T05:43:53.589Z,100256.41
2022-10-24T05:46:20.664Z,100258.94
2022-10-24T05:48:47.800Z,100253.53
2022-10-24T05:51:14.887Z,100250.78
2022-10-24T05:53:41.980Z,100243.78
2022-10-24T05:56:09.129Z,100243.78
2022-10-24T05:58:36.343Z,100245.50
2022-10-24T06:01:03.611Z,100255.22
2022-10-24T06:03:30.826Z,100257.34
2022-10-24T06:05:58.070Z,100265.19
2022-10-24T06:08:25.302Z,100254.50
2022-10-24T06:10:53.556Z,100249.94
2022-10-24T06:13:20.805Z,100243.44
2022-10-24T06:15:48.167Z,100228.34
2022-10-24T06:18:16.697Z,100233.63
2022-10-24T06:20:43.979Z,100223.66
2022-10-24T06:23:11.172Z,100212.97
2022-10-24T06:25:41.532Z,100232.31
2022-10-24T06:30:42.406Z,100229.44
2022-10-24T06:33:10.062Z,100238.44
2022-10-24T06:35:37.146Z,100247.19
2022-10-24T06:38:04.325Z,100244.56
2022-10-24T06:40:31.822Z,100239.25
2022-10-24T06:42:59.024Z,100245.19
2022-10-24T06:45:26.144Z,100241.69
2022-10-24T06:47:54.320Z,100244.22
2022-10-24T06:50:21.916Z,100242.75
2022-10-24T06:52:48.976Z,100244.19
2022-10-24T06:55:16.175Z,100248.03
2022-10-24T06:57:43.609Z,100251.63
2022-10-24T07:00:11.425Z,100263.78
2022-10-24T07:02:38.595Z,100260.00
2022-10-24T07:05:09.130Z,100266.97
2022-10-24T07:07:36.372Z,100276.91
2022-10-24T07:10:03.738Z,100281.16
2022-10-24T07:12:30.846Z,100297.00
2022-10-24T07:14:57.908Z,100298.16
2022-10-24T07:17:25.008Z,100303.66
2022-10-24T07:19:53.824Z,100289.47
2022-10-24T07:22:21.066Z,100287.38
2022-10-24T07:24:53.561Z,100285.47
2022-10-24T07:27:21.158Z,100280.78
2022-10-24T07:29:48.336Z,100286.69
2022-10-24T07:32:15.418Z,100287.28
2022-10-24T07:34:42.586Z,100280.94
2022-10-24T07:37:09.751Z,100274.47
2022-10-24T07:39:37.506Z,100283.09
2022-10-24T07:42:04.575Z,100284.06
2022-10-24T07:44:31.660Z,100285.66
2022-10-24T07:46:58.730Z,100287.94
2022-10-24T07:49:28.992Z,100295.63
2022-10-24T07:51:58.551Z,100296.00
2022-10-24T07:54:26.740Z,100292.75
2022-10-24T07:56:54.181Z,100285.06
2022-10-24T07:59:40.666Z,100289.78
2022-10-24T08:02:11.045Z,100297.34
2022-10-24T08:04:38.449Z,100297.00
2022-10-24T08:07:11.536Z,100288.56
2022-10-24T08:09:42.735Z,100282.91
2022-10-24T08:12:10.129Z,100285.47
2022-10-24T08:14:38.473Z,100283.38
2022-10-24T08:17:05.602Z,100282.91
2022-10-24T08:19:33.336Z,100285.06
2022-10-24T08:22:01.101Z,100292.53
2022-10-24T08:24:28.344Z,100278.19
2022-10-24T08:26:58.196Z,100290.97
2022-10-24T08:29:25.461Z,100294.94
2022-10-24T08:31:55.588Z,100288.19
2022-10-24T08:34:23.307Z,100285.91
2022-10-24T08:36:50.532Z,100285.47
2022-10-24T08:39:18.784Z,100283.88
2022-10-24T08:41:59.441Z,100277.81
2022-10-24T08:44:31.126Z,100270.09
2022-10-24T08:47:09.859Z,100274.88
2022-10-24T08:49:52.153Z,100282.94
2022-10-24T08:52:49.181Z,100279.63
2022-10-24T08:55:30.883Z,100278.97
2022-10-24T08:58:05.515Z,100280.16
2022-10-24T09:00:41.763Z,100271.81
2022-10-24T09:03:31.226Z,100270.59
2022-10-24T09:06:08.218Z,100269.06
2022-10-24T09:08:43.734Z,100264.09
2022-10-24T09:11:14.195Z,100260.69
2022-10-24T09:13:41.255Z,100260.53
2022-10-24T09:16:22.849Z,100271.19
2022-10-24T09:18:53.387Z,100267.16
2022-10-24T09:21:21.501Z,100272.22
2022-10-24T09:23:50.000Z,100266.78
2022-10-24T09:26:24.543Z,100270.16
2022-10-24T09:28:51.654Z,100275.91
2022-10-24T09:31:21.201Z,100276.91
2022-10-24T09:33:49.717Z,100278.59
2022-10-24T09:36:18.565Z,100277.50
2022-10-24T09:38:46.886Z,100271.63
2022-10-24T09:41:13.884Z,100273.88
2022-10-24T09:43:43.578Z,100271.13
2022-10-24T09:46:13.976Z,100269.16
2022-10-24T09:49:02.934Z,100267.66
2022-10-24T09:51:36.290Z,100268.19
2022-10-24T09:54:18.589Z,100265.28
2022-10-24T09:56:54.322Z,100278.16
2022-10-24T10:00:00.608Z,100274.25
2022-10-24T10:02:28.237Z,100281.13
2022-10-24T10:05:04.188Z,100278.88
2022-10-24T10:07:33.771Z,100263.38
2022-10-24T10:10:19.691Z,100277.78
2022-10-24T10:13:00.100Z,100269.56
2022-10-24T10:15:46.030Z,100274.75
2022-10-24T10:18:25.097Z,100268.28
2022-10-24T10:21:11.923Z,100258.66
2022-10-24T10:23:48.584Z,100267.47
2022-10-24T10:26:28.509Z,100261.88
2022-10-24T10:29:04.597Z,100269.69
2022-10-24T10:31:43.593Z,100267.34
2022-10-24T10:34:35.665Z,100262.13
2022-10-24T10:37:08.408Z,100256.38
2022-10-24T10:40:13.927Z,100262.97
2022-10-24T10:42:59.359Z,100260.03
2022-10-24T10:45:39.900Z,100252.75
2022-10-24T10:48:25.550Z,100262.13
2022-10-24T10:51:07.295Z,100258.50
2022-10-24T10:53:55.301Z,100256.66
2022-10-24T10:56:32.683Z,100266.06
2022-10-24T10:59:37.578Z,100256.41
2022-10-24T11:02:38.452Z,100267.28
2022-10-24T11:05:14.486Z,100262.13
2022-10-24T11:07:50.936Z,100254.97
2022-10-24T11:10:22.297Z,100258.06
2022-10-24T11:12:49.566Z,100256.91
2022-10-24T11:15:29.668Z,100257.78
2022-10-24T11:18:06.518Z,100253.41
2022-10-24T11:20:44.195Z,100247.13
2022-10-24T11:23:23.229Z,100243.88
2022-10-24T11:26:08.022Z,100259.56
2022-10-24T11:28:46.776Z,100249.06
2022-10-24T11:31:15.216Z,100255.66
2022-10-24T11:33:45.615Z,100257.88
2022-10-24T11:36:45.533Z,100255.22
2022-10-24T11:39:14.458Z,100258.97
2022-10-24T11:41:59.617Z,100243.41
2022-10-24T11:44:44.196Z,100258.84
2022-10-24T11:47:25.987Z,100265.56
2022-10-24T11:50:12.898Z,100253.06
2022-10-24T11:52:43.807Z,100242.81
2022-10-24T11:55:17.032Z,100238.22
2022-10-24T11:57:46.491Z,100247.03
2022-10-24T12:00:26.002Z,100242.69
2022-10-24T12:03:11.802Z,100234.56
2022-10-24T12:05:41.894Z,100241.44
2022-10-24T12:08:28.843Z,100238.22
2022-10-24T12:11:11.144Z,100235.41
2022-10-24T12:13:50.131Z,100246.19
2022-10-24T12:16:45.491Z,100229.22
2022-10-24T12:19:16.019Z,100228.34
2022-10-24T12:21:55.198Z,100231.13
2022-10-24T12:24:37.099Z,100233.50
2022-10-24T12:27:19.430Z,100227.84
2022-10-24T12:30:01.106Z,100232.22
2022-10-24T12:32:40.634Z,100215.91
2022-10-24T12:35:30.317Z,100217.19
2022-10-24T12:37:58.731Z,100204.59
2022-10-24T12:40:57.643Z,100195.16
2022-10-24T12:43:37.592Z,100199.19
2022-10-24T12:46:25.680Z,100194.41
2022-10-24T12:48:58.895Z,100193.53
2022-10-24T12:51:36.278Z,100197.72
2022-10-24T12:54:12.194Z,100202.19
2022-10-24T12:56:51.481Z,100194.19
2022-10-24T12:59:25.148Z,100195.66
2022-10-24T13:02:14.974Z,100191.88
2022-10-24T13:05:07.999Z,100195.81
2022-10-24T13:07:48.407Z,100197.22
2022-10-24T13:10:45.416Z,100213.88
2022-10-24T13:13:27.239Z,100193.09
2022-10-24T13:15:55.369Z,100203.34
2022-10-24T13:18:46.939Z,100188.78
2022-10-24T13:21:15.134Z,100199.97
2022-10-24T13:23:46.279Z,100203.84
2022-10-24T13:26:40.286Z,100203.75
2022-10-24T13:29:39.360Z,100215.63
2022-10-24T13:32:06.307Z,100203.97
2022-10-24T13:34:56.585Z,100199.63
2022-10-24T13:37:26.650Z,100199.59
2022-10-24T13:39:57.128Z,100200.69
2022-10-24T13:42:39.779Z,100199.31
2022-10-24T13:45:34.322Z,100208.34
2022-10-24T13:48:07.130Z,100225.66
2022-10-24T13:50:37.496Z,100206.28
2022-10-24T13:53:30.900Z,100216.75
2022-10-24T13:56:02.775Z,100225.97
2022-10-24T13:58:40.978Z,100219.41
2022-10-24T14:01:25.441Z,100220.38
2022-10-24T14:03:54.066Z,100224.03
2022-10-24T14:06:26.052Z,100223.91
2022-10-24T14:09:05.559Z,100213.50
2022-10-24T14:11:35.234Z,100211.13
2022-10-24T14:14:07.069Z,100205.50
2022-10-24T14:16:35.675Z,100213.66
2022-10-24T14:19:29.569Z,100210.84
2022-10-24T14:21:58.123Z,100211.63
2022-10-24T14:24:25.457Z,100210.72
2022-10-24T14:26:53.403Z,100209.63
2022-10-24T14:29:31.119Z,100208.91
2022-10-24T14:32:00.867Z,100207.78
2022-10-24T14:34:31.436Z,100215.31
2022-10-24T14:37:05.492Z,100211.34
2022-10-24T14:39:32.908Z,100217.19
2022-10-24T14:42:01.551Z,100223.22
2022-10-24T14:44:29.178Z,100227.97
2022-10-24T14:47:04.350Z,100236.81
2022-10-24T14:49:34.127Z,100237.19
2022-10-24T14:52:27.527Z,100239.78
2022-10-24T14:55:00.509Z,100240.09
2022-10-24T14:57:29.067Z,100234.22
2022-10-24T14:59:59.615Z,100230.88
2022-10-24T15:02:30.506Z,100234.38
2022-10-24T15:05:22.987Z,100240.47
2022-10-24T15:08:23.408Z,100216.66
2022-10-24T15:11:04.116Z,100232.72
2022-10-24T15:13:33.287Z,100231.91
2022-10-24T15:16:01.840Z,100224.06
2022-10-24T15:18:31.494Z,100229.78
2022-10-24T15:21:14.680Z,100228.41
2022-10-24T15:23:51.165Z,100238.31
2022-10-24T15:26:42.880Z,100239.97
2022-10-24T15:29:13.368Z,100231.22
2022-10-24T15:31:46.364Z,100234.88
2022-10-24T15:34:34.634Z,100225.88
2022-10-24T15:37:04.134Z,100224.50
2022-10-24T15:39:31.610Z,100224.41
2022-10-24T15:41:59.287Z,100231.31
2022-10-24T15:44:32.340Z,100233.59
2022-10-24T15:46:59.819Z,100230.69
2022-10-24T15:49:29.250Z,100229.28
2022-10-24T15:51:59.577Z,100232.00
2022-10-24T15:54:27.304Z,100232.28
2022-10-24T15:56:55.509Z,100239.59
2022-10-24T15:59:26.795Z,100252.34
2022-10-24T16:02:00.303Z,100262.31
2022-10-24T16:04:28.149Z,100252.94
2022-10-24T16:06:56.162Z,100253.22
2022-10-24T16:09:31.330Z,100245.09
2022-10-24T16:11:59.238Z,100248.34
2022-10-24T16:14:26.835Z,100251.84
2022-10-24T16:16:55.365Z,100251.28
2022-10-24T16:19:23.962Z,100250.88
2022-10-24T16:21:52.764Z,100267.41
2022-10-24T16:24:20.246Z,100263.91
2022-10-24T16:26:47.628Z,100257.47
2022-10-24T16:29:15.341Z,100269.94
2022-10-24T16:31:44.033Z,100271.75
2022-10-24T16:34:11.737Z,100265.88
2022-10-24T16:36:41.738Z,100268.41
2022-10-24T16:39:09.264Z,100272.19
2022-10-24T16:41:36.833Z,100277.09
2022-10-24T16:44:04.414Z,100270.38
2022-10-24T16:46:31.777Z,100272.22
2022-10-24T16:48:59.290Z,100302.44
2022-10-24T16:51:32.329Z,100285.91
2022-10-24T16:54:01.318Z,100289.00
2022-10-24T16:56:30.346Z,100288.03
2022-10-24T16:58:57.947Z,100291.38
2022-10-24T17:01:27.781Z,100294.34
2022-10-24T17:03:55.432Z,100291.69
2022-10-24T17:06:23.032Z,100290.41
2022-10-24T17:08:51.712Z,100290.28
2022-10-24T17:11:43.261Z,100285.09
2022-10-24T17:16:41.903Z,100287.19
2022-10-24T17:19:16.196Z,100292.78
2022-10-24T17:21:48.960Z,100292.06
2022-10-24T17:24:22.201Z,100299.06
2022-10-24T17:26:50.165Z,100295.72
2022-10-24T17:29:30.125Z,100288.44
2022-10-24T17:31:58.930Z,100297.38
2022-10-24T17:34:27.038Z,100295.53
2022-10-24T17:37:19.699Z,100287.56
2022-10-24T17:39:50.655Z,100294.25
2022-10-24T17:42:19.577Z,100301.94
2022-10-24T17:44:47.787Z,100292.44
2022-10-24T17:47:18.376Z,100294.66
2022-10-24T17:49:46.105Z,100293.28
2022-10-24T17:52:18.152Z,100294.94
2022-10-24T17:54:45.994Z,100302.78
2022-10-24T17:57:13.585Z,100311.03
2022-10-24T17:59:41.082Z,100299.81
2022-10-24T18:02:13.352Z,100309.03
2022-10-24T18:04:43.053Z,100309.19
2022-10-24T18:07:10.728Z,100311.84
2022-10-24T18:09:40.208Z,100312.41
2022-10-24T18:12:07.953Z,100317.81
2022-10-24T18:14:41.553Z,100322.69
2022-10-24T18:17:09.063Z,100321.59
2022-10-24T18:19:36.650Z,100319.63
2022-10-24T18:22:04.000Z,100320.47
2022-10-24T18:24:31.727Z,100321.88
2022-10-24T18:26:59.333Z,100324.78
2022-10-24T18:29:26.927Z,100321.44
2022-10-24T18:31:54.551Z,100317.78
2022-10-24T18:34:34.770Z,100319.19
2022-10-24T18:37:02.331Z,100327.53
2022-10-24T18:39:30.133Z,100326.38
2022-10-24T18:42:26.104Z,100319.13
2022-10-24T18:44:53.824Z,100321.22
2022-10-24T18:47:24.820Z,100318.56
2022-10-24T18:49:54.549Z,100320.50
2022-10-24T18:52:56.337Z,100314.91
2022-10-24T18:55:26.465Z,100319.13
2022-10-24T18:57:54.421Z,100319.53
2022-10-24T19:00:24.307Z,100326.63
2022-10-24T19:03:21.822Z,100329.13
2022-10-24T19:05:55.748Z,100325.25
2022-10-24T19:08:25.338Z,100324.09
2022-10-24T19:10:56.229Z,100324.22
2022-10-24T19:13:25.778Z,100321.56
2022-10-24T19:16:01.312Z,100326.41
2022-10-24T19:18:28.876Z,100322.25
2022-10-24T19:20:56.369Z,100326.00
2022-10-24T19:23:24.843Z,100331.72
2022-10-24T19:25:52.464Z,100331.91
2022-10-24T19:28:20.846Z,100329.84
2022-10-24T19:30:48.821Z,100328.00
2022-10-24T19:33:16.860Z,100328.56
2022-10-24T19:35:48.930Z,100327.97
2022-10-24T19:38:17.863Z,100333.03
2022-10-24T19:40:52.122Z,100334.44
2022-10-24T19:43:20.615Z,100334.69
2022-10-24T19:46:00.526Z,100331.22
2022-10-24T19:48:37.413Z,100339.03
2022-10-24T19:51:07.028Z,100331.91
2022-10-24T19:53:35.621Z,100333.28
2022-10-24T19:56:07.667Z,100335.09
2022-10-24T19:58:35.269Z,100331.16
2022-10-24T20:01:08.131Z,100332.50
2022-10-24T20:03:37.069Z,100337.25
2022-10-24T20:06:04.797Z,100332.34
2022-10-24T20:08:32.289Z,100338.72
2022-10-24T20:11:00.474Z,100335.00
2022-10-24T20:13:28.192Z,100333.44
2022-10-24T20:16:00.122Z,100343.78
2022-10-24T20:18:28.736Z,100337.50
2022-10-24T20:20:58.958Z,100333.28
2022-10-24T20:23:26.565Z,100345.22
2022-10-24T20:26:15.718Z,100337.41
2022-10-24T20:28:46.092Z,100336.44
2022-10-24T20:31:29.643Z,100341.16
2022-10-24T20:34:06.864Z,100348.97
2022-10-24T20:36:47.342Z,100348.63
2022-10-24T20:39:16.336Z,100351.59
2022-10-24T20:41:43.935Z,100353.94
2022-10-24T20:44:12.028Z,100349.41
2022-10-24T20:46:40.219Z,100352.44
2022-10-24T20:49:07.712Z,100353.13
2022-10-24T20:51:35.182Z,100359.66
2022-10-24T20:54:02.782Z,100368.59
2022-10-24T20:56:30.511Z,100366.63
2022-10-24T20:58:57.993Z,100369.44
2022-10-24T21:01:27.706Z,100375.81
2022-10-24T21:03:56.559Z,100372.22
2022-10-24T21:06:26.067Z,100382.44
2022-10-24T21:08:55.569Z,100382.69
2022-10-24T21:11:26.325Z,100391.75
2022-10-24T21:14:01.726Z,100392.72
2022-10-24T21:16:29.674Z,100396.59
2022-10-24T21:18:58.483Z,100391.41
2022-10-24T21:21:26.443Z,100397.56
2022-10-24T21:23:57.272Z,100392.00
2022-10-24T21:26:26.922Z,100382.34
2022-10-24T21:28:59.487Z,100392.50
2022-10-24T21:31:42.298Z,100390.03
2022-10-24T21:34:10.012Z,100389.69
2022-10-24T21:36:37.485Z,100393.31
2022-10-24T21:39:05.209Z,100393.06
2022-10-24T21:41:33.663Z,100391.38
2022-10-24T21:44:01.268Z,100401.38
2022-10-24T21:46:31.861Z,100400.91
2022-10-24T21:48:59.934Z,100398.75
2022-10-24T21:51:33.309Z,100403.13
2022-10-24T21:54:03.543Z,100400.59
2022-10-24T21:56:34.526Z,100404.69
2022-10-24T21:59:05.468Z,100407.78
2022-10-24T22:01:35.312Z,100413.47
2022-10-24T22:04:03.547Z,100411.78
2022-10-24T22:06:32.021Z,100421.22
2022-10-24T22:08:59.838Z,100407.72
2022-10-24T22:11:30.204Z,100406.66
2022-10-24T22:13:58.033Z,100418.31
2022-10-24T22:16:28.164Z,100419.06
2022-10-24T22:18:57.205Z,100408.69
2022-10-24T22:21:27.560Z,100414.84
2022-10-24T22:23:56.933Z,100418.94
2022-10-24T22:26:25.530Z,100423.06
2022-10-24T22:28:55.780Z,100425.09
2022-10-24T22:31:25.169Z,100426.78
2022-10-24T22:33:53.280Z,100430.13
2022-10-24T22:36:42.711Z,100431.84
2022-10-24T22:39:16.419Z,100437.72
2022-10-24T22:41:46.673Z,100437.50
2022-10-24T22:44:16.812Z,100431.47
2022-10-24T22:47:06.336Z,100433.03
2022-10-24T22:49:42.702Z,100439.41
2022-10-24T22:52:11.657Z,100448.31
2022-10-24T22:54:39.817Z,100446.66
2022-10-24T22:57:07.786Z,100453.41
2022-10-24T22:59:35.521Z,100455.44
2022-10-24T23:02:14.236Z,100458.19
2022-10-24T23:04:54.345Z,100458.91
2022-10-24T23:07:34.191Z,100449.53
2022-10-24T23:10:01.799Z,100454.97
2022-10-24T23:12:29.284Z,100449.38
2022-10-24T23:14:56.996Z,100453.09
2022-10-24T23:17:29.036Z,100452.72
2022-10-24T23:19:57.123Z,100458.38
2022-10-24T23:22:28.514Z,100459.59
2022-10-24T23:25:00.850Z,100453.09
2022-10-24T23:27:43.995Z,100463.69
2022-10-24T23:30:23.325Z,100455.75
2022-10-24T23:32:51.398Z,100459.81
2022-10-24T23:35:20.043Z,100468.00
2022-10-24T23:37:50.177Z,100463.38
2022-10-24T23:40:17.775Z,100474.31
2022-10-24T23:42:46.433Z,100459.81
2022-10-24T23:45:15.858Z,100461.25
2022-10-24T23:48:09.017Z,100462.81
2022-10-24T23:50:38.413Z,100466.28
2022-10-24T23:53:24.266Z,100460.03
2022-10-24T23:55:51.899Z,100468.09
2022-10-24T23:58:19.346Z,100458.34
